This is the latest recevied weather packets stored in our database for station/object VANOK. If no packets are shown the sender has not sent any weather packets the latest 1 day(s).
| Time | Temp. | Humidity | Pressure | Rain* | Wind** | Luminosity | Snow |
|---|---|---|---|---|---|---|---|
| 1778084846 | 7.78° C | 54% | 1014.8 hPa | - | - | - | - |
| 1778083645 | 7.78° C | 52% | 1014.8 hPa | - | - | - | - |
| 1778072844 | 7.78° C | 65% | 1015.4 hPa | - | - | - | - |
| 1778071644 | 8.33° C | 62% | 1015.3 hPa | - | - | - | - |
| 1778070444 | 8.89° C | 56% | 1015.1 hPa | - | - | - | - |
| 1778069244 | 8.89° C | 49% | 1015.3 hPa | - | - | - | - |
| 1778065644 | 9.44° C | 49% | 1015.1 hPa | - | - | - | - |
| 1778059646 | 7.78° C | 66% | 1014.6 hPa | - | - | - | - |
| 1778057246 | 7.22° C | 61% | 1014.2 hPa | - | - | - | - |
| 1778056046 | 7.78° C | 57% | 1014.2 hPa | - | - | - | - |
| 1778053646 | 7.22° C | 54% | 1014.1 hPa | - | - | - | - |
| 1778052447 | 6.67° C | 63% | 1013.9 hPa | - | - | - | - |
| 1778050046 | 6.67° C | 68% | 1013.5 hPa | - | - | - | - |
| 1778048846 | 6.11° C | 70% | 1013.4 hPa | - | - | - | - |
| 1778046445 | 6.11° C | 73% | 1013 hPa | - | - | - | - |
| 1778045246 | 6.11° C | 74% | 1012.9 hPa | - | - | - | - |
| 1778044045 | 5.56° C | 75% | 1012.7 hPa | - | - | - | - |
| 1778042845 | 5.56° C | 76% | 1012.6 hPa | - | - | - | - |
| 1778041645 | 5.56° C | 76% | 1012.3 hPa | - | - | - | - |
| 1778040445 | 5° C | 76% | 1012.1 hPa | - | - | - | - |
| 1778039246 | 4.44° C | 78% | 1011.9 hPa | - | - | - | - |
| 1778036845 | 3.89° C | 81% | 1011.6 hPa | - | - | - | - |
| 1778035645 | 3.89° C | 82% | 1011.4 hPa | - | - | - | - |
| 1778034444 | 3.89° C | 80% | 1011.3 hPa | - | - | - | - |
| 1778033244 | 4.44° C | 78% | 1011.1 hPa | - | - | - | - |
* Rain since midnight (hover to see other rain measurements)
** Current wind speed in m/s (hover to see current wind gust speed)